Terminal Aerodrome Forecast
Issued by NWS Charleston, WV

Current Version | Previous Version | Text Only | Print | Product List | Glossary Off
Versions: 1 2 3 4 5 6 7 8 9 10 11 12 13 14 15 16 17 18 19 20 21 22 23

000
FTUS41 KRLX 232300
TAFCRW
TAF
KCRW 232322Z 2400/2424 VRB03KT 2SM -RA BR BKN004 OVC040
     FM240300 02004KT 3SM -RASN BR BKN015 OVC040
     FM240700 34004KT 1SM -SN BR OVC004
     FM241200 30005KT 3SM -SN BR OVC008
     FM241400 29006KT P6SM BKN020
     FM241700 27008KT P6SM SCT025=

USA.gov is the U.S. government's official web portal to all federal, state and local government web resources and services.